Albemarle, North Carolina
Current Conditions -  °F | °C
As of 7:15 AM on Wednesday 28 Jan 2015 (Local Time) from KVUJ Reporting Station
Clear Clear  
Wind Chill: 28°   Ceiling: Unl
Heat Index: 28°   Visibility: 10mi
Dew Point: 17°   Wind: 0mph
Humidity: 63%   Direction: NA
Pressure: 30.22"   Gusts: NA
Location:  35.35°N, 80.19°W
Report Text: KVUJ 281215Z AUTO 00000KT 10SM CLR M02/M09 A3022 RMK AO2 LTG DSNT E T10251086
Loading
Personal Weather Stations






























Interactive Weather Map New forecast layout! Learn more

10-Day Weather Forecast

Advertisements
Track Severe Weather on mobile